sensor_id;sensor_type;location;lat;lon;timestamp;P1;durP1;ratioP1;P2;durP2;ratioP2
60430;SDS011;46285;45.122;20.726;2023-08-08T00:01:23;2.78;;;0.60;;
60430;SDS011;46285;45.122;20.726;2023-08-08T00:11:24;1.10;;;0.50;;
60430;SDS011;46285;45.122;20.726;2023-08-08T00:21:25;1.33;;;0.50;;
60430;SDS011;46285;45.122;20.726;2023-08-08T00:31:26;1.50;;;0.60;;
60430;SDS011;46285;45.122;20.726;2023-08-08T00:41:28;1.70;;;0.55;;
60430;SDS011;46285;45.122;20.726;2023-08-08T00:51:29;2.55;;;0.40;;
60430;SDS011;46285;45.122;20.726;2023-08-08T01:01:30;1.45;;;0.40;;
60430;SDS011;46285;45.122;20.726;2023-08-08T01:11:31;2.38;;;0.60;;
60430;SDS011;46285;45.122;20.726;2023-08-08T01:21:34;1.70;;;0.65;;
60430;SDS011;46285;45.122;20.726;2023-08-08T01:31:36;3.47;;;0.63;;
60430;SDS011;46285;45.122;20.726;2023-08-08T01:41:39;3.65;;;1.02;;
60430;SDS011;46285;45.122;20.726;2023-08-08T01:51:40;3.25;;;0.90;;
60430;SDS011;46285;45.122;20.726;2023-08-08T02:01:42;3.03;;;0.75;;
60430;SDS011;46285;45.122;20.726;2023-08-08T02:11:43;3.88;;;0.82;;
60430;SDS011;46285;45.122;20.726;2023-08-08T02:21:44;5.47;;;0.95;;
60430;SDS011;46285;45.122;20.726;2023-08-08T02:31:46;1.88;;;0.60;;
60430;SDS011;46285;45.122;20.726;2023-08-08T02:41:47;1.70;;;0.50;;
60430;SDS011;46285;45.122;20.726;2023-08-08T02:51:48;3.58;;;0.70;;
60430;SDS011;46285;45.122;20.726;2023-08-08T03:01:50;2.30;;;0.80;;
60430;SDS011;46285;45.122;20.726;2023-08-08T03:11:52;2.00;;;0.68;;
60430;SDS011;46285;45.122;20.726;2023-08-08T03:21:53;1.33;;;0.60;;
60430;SDS011;46285;45.122;20.726;2023-08-08T03:31:55;9.18;;;1.00;;
60430;SDS011;46285;45.122;20.726;2023-08-08T03:42:00;4.60;;;1.20;;
60430;SDS011;46285;45.122;20.726;2023-08-08T03:52:01;2.83;;;1.00;;
60430;SDS011;46285;45.122;20.726;2023-08-08T04:02:03;8.00;;;1.40;;
60430;SDS011;46285;45.122;20.726;2023-08-08T04:12:04;3.97;;;1.10;;
60430;SDS011;46285;45.122;20.726;2023-08-08T04:22:06;3.92;;;1.10;;
60430;SDS011;46285;45.122;20.726;2023-08-08T04:32:07;3.97;;;1.10;;
60430;SDS011;46285;45.122;20.726;2023-08-08T04:42:09;4.43;;;1.33;;
60430;SDS011;46285;45.122;20.726;2023-08-08T04:52:10;4.35;;;1.00;;
60430;SDS011;46285;45.122;20.726;2023-08-08T05:02:11;3.42;;;1.30;;
60430;SDS011;46285;45.122;20.726;2023-08-08T05:12:12;4.70;;;1.58;;
60430;SDS011;46285;45.122;20.726;2023-08-08T05:22:13;3.15;;;0.82;;
60430;SDS011;46285;45.122;20.726;2023-08-08T05:32:14;4.13;;;1.40;;
60430;SDS011;46285;45.122;20.726;2023-08-08T05:42:15;5.22;;;1.15;;
60430;SDS011;46285;45.122;20.726;2023-08-08T05:52:16;4.45;;;1.05;;
60430;SDS011;46285;45.122;20.726;2023-08-08T06:02:18;2.70;;;0.80;;
60430;SDS011;46285;45.122;20.726;2023-08-08T06:12:19;4.72;;;0.88;;
60430;SDS011;46285;45.122;20.726;2023-08-08T06:22:20;3.45;;;0.90;;
60430;SDS011;46285;45.122;20.726;2023-08-08T06:32:21;3.47;;;1.17;;
60430;SDS011;46285;45.122;20.726;2023-08-08T06:42:22;3.47;;;1.05;;
60430;SDS011;46285;45.122;20.726;2023-08-08T06:52:29;6.35;;;1.30;;
60430;SDS011;46285;45.122;20.726;2023-08-08T07:02:30;5.22;;;1.40;;
60430;SDS011;46285;45.122;20.726;2023-08-08T07:12:32;3.50;;;1.05;;
60430;SDS011;46285;45.122;20.726;2023-08-08T07:22:33;6.22;;;1.48;;
60430;SDS011;46285;45.122;20.726;2023-08-08T07:32:34;5.53;;;1.25;;
60430;SDS011;46285;45.122;20.726;2023-08-08T07:42:35;6.68;;;1.80;;
60430;SDS011;46285;45.122;20.726;2023-08-08T07:52:36;2.80;;;0.80;;
60430;SDS011;46285;45.122;20.726;2023-08-08T08:02:38;3.63;;;1.13;;
60430;SDS011;46285;45.122;20.726;2023-08-08T08:12:39;10.02;;;1.92;;
60430;SDS011;46285;45.122;20.726;2023-08-08T08:22:41;4.55;;;1.08;;
60430;SDS011;46285;45.122;20.726;2023-08-08T08:32:43;3.30;;;1.17;;
60430;SDS011;46285;45.122;20.726;2023-08-08T08:42:44;6.13;;;1.40;;
60430;SDS011;46285;45.122;20.726;2023-08-08T08:52:46;4.20;;;0.98;;
60430;SDS011;46285;45.122;20.726;2023-08-08T09:02:48;7.05;;;1.60;;
60430;SDS011;46285;45.122;20.726;2023-08-08T09:12:49;4.28;;;1.42;;
60430;SDS011;46285;45.122;20.726;2023-08-08T09:22:51;4.65;;;1.33;;
60430;SDS011;46285;45.122;20.726;2023-08-08T09:32:52;5.10;;;2.50;;
60430;SDS011;46285;45.122;20.726;2023-08-08T09:42:53;4.07;;;1.10;;
60430;SDS011;46285;45.122;20.726;2023-08-08T09:52:54;5.65;;;1.60;;
60430;SDS011;46285;45.122;20.726;2023-08-08T10:02:56;6.55;;;1.67;;
60430;SDS011;46285;45.122;20.726;2023-08-08T10:12:57;4.50;;;1.10;;
60430;SDS011;46285;45.122;20.726;2023-08-08T10:22:58;3.78;;;1.48;;
60430;SDS011;46285;45.122;20.726;2023-08-08T10:32:59;6.50;;;1.27;;
60430;SDS011;46285;45.122;20.726;2023-08-08T10:43:09;3.67;;;1.07;;
60430;SDS011;46285;45.122;20.726;2023-08-08T10:53:10;4.55;;;1.65;;
60430;SDS011;46285;45.122;20.726;2023-08-08T11:03:11;4.50;;;1.38;;
60430;SDS011;46285;45.122;20.726;2023-08-08T11:13:12;5.20;;;1.35;;
60430;SDS011;46285;45.122;20.726;2023-08-08T11:23:13;4.50;;;1.48;;
60430;SDS011;46285;45.122;20.726;2023-08-08T11:33:15;4.93;;;1.38;;
60430;SDS011;46285;45.122;20.726;2023-08-08T11:43:16;5.30;;;1.35;;
60430;SDS011;46285;45.122;20.726;2023-08-08T11:53:18;4.97;;;1.10;;
60430;SDS011;46285;45.122;20.726;2023-08-08T12:03:20;5.85;;;1.60;;
60430;SDS011;46285;45.122;20.726;2023-08-08T12:13:21;4.38;;;1.20;;
60430;SDS011;46285;45.122;20.726;2023-08-08T12:23:23;4.70;;;1.40;;
60430;SDS011;46285;45.122;20.726;2023-08-08T12:33:24;5.07;;;1.45;;
60430;SDS011;46285;45.122;20.726;2023-08-08T12:43:25;4.82;;;1.27;;
60430;SDS011;46285;45.122;20.726;2023-08-08T12:53:26;5.32;;;1.40;;
60430;SDS011;46285;45.122;20.726;2023-08-08T13:03:27;6.50;;;1.65;;
60430;SDS011;46285;45.122;20.726;2023-08-08T13:13:28;4.93;;;1.30;;
60430;SDS011;46285;45.122;20.726;2023-08-08T13:23:30;5.95;;;1.77;;
60430;SDS011;46285;45.122;20.726;2023-08-08T13:33:31;5.97;;;1.63;;
60430;SDS011;46285;45.122;20.726;2023-08-08T13:43:32;5.32;;;1.70;;
60430;SDS011;46285;45.122;20.726;2023-08-08T13:53:33;5.75;;;1.67;;
60430;SDS011;46285;45.122;20.726;2023-08-08T14:03:34;5.40;;;1.63;;
60430;SDS011;46285;45.122;20.726;2023-08-08T14:13:35;14.35;;;2.20;;
60430;SDS011;46285;45.122;20.726;2023-08-08T14:23:36;5.10;;;1.85;;
60430;SDS011;46285;45.122;20.726;2023-08-08T14:33:37;6.65;;;1.30;;
60430;SDS011;46285;45.122;20.726;2023-08-08T14:43:39;4.80;;;1.52;;
60430;SDS011;46285;45.122;20.726;2023-08-08T14:53:40;3.85;;;1.38;;
60430;SDS011;46285;45.122;20.726;2023-08-08T15:03:41;5.28;;;1.20;;
60430;SDS011;46285;45.122;20.726;2023-08-08T15:13:42;4.35;;;1.10;;
60430;SDS011;46285;45.122;20.726;2023-08-08T15:23:43;5.53;;;1.70;;
60430;SDS011;46285;45.122;20.726;2023-08-08T15:33:45;6.38;;;1.25;;
60430;SDS011;46285;45.122;20.726;2023-08-08T15:43:46;6.47;;;1.35;;
60430;SDS011;46285;45.122;20.726;2023-08-08T15:53:47;6.72;;;1.75;;
60430;SDS011;46285;45.122;20.726;2023-08-08T16:03:48;5.15;;;1.27;;
60430;SDS011;46285;45.122;20.726;2023-08-08T16:13:49;5.80;;;1.73;;
60430;SDS011;46285;45.122;20.726;2023-08-08T16:23:50;7.18;;;1.50;;
60430;SDS011;46285;45.122;20.726;2023-08-08T16:33:51;4.60;;;1.48;;
60430;SDS011;46285;45.122;20.726;2023-08-08T16:44:02;3.97;;;1.30;;
60430;SDS011;46285;45.122;20.726;2023-08-08T16:54:04;7.53;;;2.35;;
60430;SDS011;46285;45.122;20.726;2023-08-08T17:04:05;7.10;;;1.60;;
60430;SDS011;46285;45.122;20.726;2023-08-08T17:14:06;5.13;;;1.90;;
60430;SDS011;46285;45.122;20.726;2023-08-08T17:24:07;5.60;;;1.40;;
60430;SDS011;46285;45.122;20.726;2023-08-08T17:34:08;5.53;;;1.77;;
60430;SDS011;46285;45.122;20.726;2023-08-08T17:44:10;5.07;;;1.52;;
60430;SDS011;46285;45.122;20.726;2023-08-08T17:54:11;5.43;;;1.67;;
60430;SDS011;46285;45.122;20.726;2023-08-08T18:04:12;9.02;;;1.70;;
60430;SDS011;46285;45.122;20.726;2023-08-08T18:14:14;7.75;;;1.77;;
60430;SDS011;46285;45.122;20.726;2023-08-08T18:24:16;8.90;;;3.05;;
60430;SDS011;46285;45.122;20.726;2023-08-08T18:34:17;4.20;;;1.65;;
60430;SDS011;46285;45.122;20.726;2023-08-08T18:44:18;6.30;;;1.90;;
60430;SDS011;46285;45.122;20.726;2023-08-08T18:54:19;6.78;;;1.90;;
60430;SDS011;46285;45.122;20.726;2023-08-08T19:04:20;5.13;;;1.70;;
60430;SDS011;46285;45.122;20.726;2023-08-08T19:14:21;6.38;;;1.65;;
60430;SDS011;46285;45.122;20.726;2023-08-08T19:24:22;7.65;;;2.25;;
60430;SDS011;46285;45.122;20.726;2023-08-08T19:34:23;7.88;;;2.17;;
60430;SDS011;46285;45.122;20.726;2023-08-08T19:44:25;7.15;;;2.33;;
60430;SDS011;46285;45.122;20.726;2023-08-08T19:54:26;6.50;;;2.22;;
60430;SDS011;46285;45.122;20.726;2023-08-08T20:04:27;8.55;;;2.83;;
60430;SDS011;46285;45.122;20.726;2023-08-08T20:14:28;6.63;;;2.53;;
60430;SDS011;46285;45.122;20.726;2023-08-08T20:24:29;8.05;;;2.13;;
60430;SDS011;46285;45.122;20.726;2023-08-08T20:34:31;9.40;;;2.70;;
60430;SDS011;46285;45.122;20.726;2023-08-08T20:44:32;6.53;;;2.83;;
60430;SDS011;46285;45.122;20.726;2023-08-08T20:54:33;6.32;;;2.65;;
60430;SDS011;46285;45.122;20.726;2023-08-08T21:04:34;9.32;;;3.47;;
60430;SDS011;46285;45.122;20.726;2023-08-08T21:14:35;8.35;;;4.13;;
60430;SDS011;46285;45.122;20.726;2023-08-08T21:24:36;9.07;;;5.22;;
60430;SDS011;46285;45.122;20.726;2023-08-08T21:34:37;8.80;;;5.28;;
60430;SDS011;46285;45.122;20.726;2023-08-08T21:44:39;11.75;;;5.47;;
60430;SDS011;46285;45.122;20.726;2023-08-08T21:54:40;9.05;;;4.30;;
60430;SDS011;46285;45.122;20.726;2023-08-08T22:04:41;15.60;;;5.22;;
60430;SDS011;46285;45.122;20.726;2023-08-08T22:14:42;7.63;;;4.80;;
60430;SDS011;46285;45.122;20.726;2023-08-08T22:24:43;8.27;;;4.03;;
60430;SDS011;46285;45.122;20.726;2023-08-08T22:34:44;12.27;;;6.35;;
60430;SDS011;46285;45.122;20.726;2023-08-08T22:44:45;11.93;;;5.50;;
60430;SDS011;46285;45.122;20.726;2023-08-08T22:54:48;7.38;;;3.35;;
60430;SDS011;46285;45.122;20.726;2023-08-08T23:04:49;6.97;;;3.70;;
60430;SDS011;46285;45.122;20.726;2023-08-08T23:14:50;9.48;;;3.80;;
60430;SDS011;46285;45.122;20.726;2023-08-08T23:24:51;7.10;;;3.95;;
60430;SDS011;46285;45.122;20.726;2023-08-08T23:34:53;6.35;;;3.30;;
60430;SDS011;46285;45.122;20.726;2023-08-08T23:44:54;6.65;;;3.58;;
60430;SDS011;46285;45.122;20.726;2023-08-08T23:54:55;7.53;;;4.00;;
